Time;durP1;ratioP1;P1;durP2;ratioP2;P2;SDS_P1;SDS_P2;PMS_P1;PMS_P2;Temp;Humidity;BMP_temperature;BMP_pressure;BME280_temperature;BME280_humidity;BME280_pressure;Samples;Min_cycle;Max_cycle;Signal;HPM_P1;HPM_P2
2021/09/17 00:01:06;;;;;;;9.80;7.38;;;;;;;23.14;39.98;93982.97;4988597;28;20029;-77
2021/09/17 00:03:32;;;;;;;12.32;6.68;;;;;;;23.15;38.73;93979.09;4989650;28;20049;-76
2021/09/17 00:05:57;;;;;;;13.95;6.85;;;;;;;23.18;38.60;93977.53;4991797;28;20602;-77
2021/09/17 00:08:23;;;;;;;11.77;6.97;;;;;;;23.03;38.98;93949.66;4984589;28;20088;-78
2021/09/17 00:10:48;;;;;;;12.52;7.32;;;;;;;22.76;38.17;93899.66;4987355;28;20057;-77
2021/09/17 00:13:13;;;;;;;12.82;6.85;;;;;;;23.05;39.01;93955.47;4985044;28;20034;-76
2021/09/17 00:15:39;;;;;;;10.27;7.18;;;;;;;23.01;38.34;93949.28;4984131;28;20064;-77
2021/09/17 00:18:04;;;;;;;10.38;7.22;;;;;;;23.04;38.69;93951.19;4983330;28;20047;-76
2021/09/17 00:20:30;;;;;;;8.98;7.80;;;;;;;23.01;39.45;93952.00;4988845;28;20040;-77
2021/09/17 00:22:55;;;;;;;13.23;7.72;;;;;;;22.86;40.58;93939.59;4985753;28;20088;-77
2021/09/17 00:25:20;;;;;;;12.73;7.95;;;;;;;23.11;39.50;93956.63;4987800;28;20480;-77
2021/09/17 00:27:46;;;;;;;14.23;6.40;;;;;;;22.91;39.81;93955.47;4985786;28;20037;-77
2021/09/17 00:30:12;;;;;;;10.18;6.80;;;;;;;22.89;38.94;93938.81;4986092;28;20029;-77
2021/09/17 00:32:38;;;;;;;13.70;6.85;;;;;;;22.83;38.99;93950.41;4988235;28;20038;-79
2021/09/17 00:35:04;;;;;;;11.93;7.75;;;;;;;22.74;38.92;93953.50;4987736;28;20029;-77
2021/09/17 00:37:30;;;;;;;11.50;7.07;;;;;;;22.68;39.33;93950.38;4987947;28;20038;-78
2021/09/17 00:39:55;;;;;;;11.82;8.00;;;;;;;22.56;38.34;93925.59;4988002;28;20033;-77
2021/09/17 00:42:21;;;;;;;9.52;6.55;;;;;;;22.61;38.13;93950.41;4986683;28;20056;-77
2021/09/17 00:44:46;;;;;;;14.38;7.03;;;;;;;22.55;37.65;93943.03;4982285;28;20053;-78
2021/09/17 00:47:12;;;;;;;10.13;7.10;;;;;;;22.61;37.54;93949.63;4984504;28;20054;-78
2021/09/17 00:49:37;;;;;;;11.18;7.05;;;;;;;22.41;37.67;93924.81;4988245;28;20050;-78
2021/09/17 00:52:03;;;;;;;9.52;7.88;;;;;;;22.46;37.65;93945.34;4985025;28;20026;-79
2021/09/17 00:54:33;;;;;;;13.73;8.77;;;;;;;22.43;37.95;93932.56;4985944;28;20862;-77
2021/09/17 00:56:59;;;;;;;10.90;7.07;;;;;;;22.52;37.89;93939.16;4986637;28;20469;-78
2021/09/17 00:59:24;;;;;;;12.48;7.70;;;;;;;22.48;37.58;93934.91;4986276;28;20040;-78
2021/09/17 01:01:50;;;;;;;11.63;6.85;;;;;;;22.37;38.39;93925.97;4987533;28;20037;-79
2021/09/17 01:04:15;;;;;;;12.40;7.03;;;;;;;22.30;37.64;93911.25;4986365;28;20041;-77
2021/09/17 01:06:43;;;;;;;10.27;7.30;;;;;;;22.45;37.93;93931.00;4993960;28;21788;-78
2021/09/17 01:09:08;;;;;;;9.40;7.00;;;;;;;22.35;38.58;93912.03;4984967;28;20034;-79
2021/09/17 01:11:34;;;;;;;11.60;7.57;;;;;;;22.49;39.30;93920.16;4988322;28;20382;-77
2021/09/17 01:14:02;;;;;;;10.57;7.25;;;;;;;22.41;39.23;93926.75;4983799;28;20038;-79
2021/09/17 01:16:28;;;;;;;15.85;8.38;;;;;;;22.30;38.84;93915.88;4985012;28;20054;-77
2021/09/17 01:18:54;;;;;;;17.10;8.95;;;;;;;22.13;38.70;93884.88;4988673;28;20662;-77
2021/09/17 01:21:21;;;;;;;14.82;7.85;;;;;;;22.34;38.67;93910.50;4984094;28;20065;-78
2021/09/17 01:23:46;;;;;;;9.80;7.35;;;;;;;22.24;38.15;93899.22;4988464;28;20606;-77
2021/09/17 01:26:12;;;;;;;11.05;7.25;;;;;;;22.26;38.72;93901.56;4985840;28;20046;-78
2021/09/17 01:28:37;;;;;;;9.00;7.93;;;;;;;22.27;38.56;93903.91;4982513;28;20041;-79
2021/09/17 01:31:03;;;;;;;10.73;7.45;;;;;;;22.19;39.88;93902.28;4987503;28;20169;-78
2021/09/17 01:33:28;;;;;;;12.25;8.25;;;;;;;22.08;39.18;93906.94;4986140;28;20052;-78
2021/09/17 01:35:59;;;;;;;11.73;7.15;;;;;;;22.03;39.35;93910.00;4988727;28;20034;-77
2021/09/17 01:38:26;;;;;;;9.00;7.40;;;;;;;22.05;39.09;93906.91;4985162;28;20030;-79
2021/09/17 01:40:51;;;;;;;11.60;7.32;;;;;;;22.03;39.91;93909.22;4982254;28;20038;-78
2021/09/17 01:43:17;;;;;;;10.93;6.63;;;;;;;21.89;38.70;93888.31;4984267;28;20406;-77
2021/09/17 01:45:42;;;;;;;15.27;7.60;;;;;;;21.74;39.03;93881.28;4987070;28;20704;-79
2021/09/17 01:48:08;;;;;;;12.25;7.03;;;;;;;21.88;39.76;93903.00;4987984;28;20049;-77
2021/09/17 01:50:33;;;;;;;10.25;7.50;;;;;;;21.80;39.31;93890.59;4985652;28;20153;-79
2021/09/17 01:52:58;;;;;;;20.05;7.10;;;;;;;21.87;39.25;93879.78;4986233;28;20054;-77
2021/09/17 01:55:24;;;;;;;13.70;6.55;;;;;;;21.91;39.28;93890.63;4986699;28;20037;-78
2021/09/17 01:57:53;;;;;;;12.80;7.60;;;;;;;21.96;39.23;93891.03;4983837;28;20338;-78
2021/09/17 02:00:19;;;;;;;11.38;7.07;;;;;;;21.85;39.94;93872.03;4984855;28;20520;-78
2021/09/17 02:02:45;;;;;;;11.93;6.75;;;;;;;21.93;40.44;93872.06;4987191;28;20060;-78
2021/09/17 02:05:10;;;;;;;14.15;7.07;;;;;;;21.77;39.79;93858.88;4982237;28;20525;-78
2021/09/17 02:07:35;;;;;;;12.55;7.72;;;;;;;21.84;40.43;93870.50;4983279;28;20089;-77
2021/09/17 02:10:02;;;;;;;14.85;7.57;;;;;;;21.92;40.71;93887.53;4987912;28;20053;-78
2021/09/17 02:12:28;;;;;;;12.15;7.65;;;;;;;21.84;40.37;93865.09;4992946;28;20435;-78
2021/09/17 02:14:53;;;;;;;11.50;7.28;;;;;;;21.97;39.78;93878.25;4987967;28;20528;-77
2021/09/17 02:17:21;;;;;;;19.60;8.00;;;;;;;21.83;40.19;93866.25;4989548;28;20049;-77
2021/09/17 02:19:47;;;;;;;13.68;7.55;;;;;;;22.01;39.94;93879.81;4989615;28;20045;-78
2021/09/17 02:22:13;;;;;;;14.68;7.93;;;;;;;21.94;39.68;93874.41;4984157;28;20030;-78
2021/09/17 02:24:38;;;;;;;13.80;7.47;;;;;;;21.74;40.02;93848.81;4986013;28;20030;-78
2021/09/17 02:27:04;;;;;;;13.77;7.18;;;;;;;21.92;39.89;93878.63;4989240;28;20161;-78
2021/09/17 02:29:29;;;;;;;13.77;7.75;;;;;;;21.81;39.99;93841.47;4987397;28;20492;-78
2021/09/17 02:31:55;;;;;;;17.52;8.43;;;;;;;22.04;39.98;93870.16;4990041;28;20144;-78
2021/09/17 02:34:20;;;;;;;12.18;7.35;;;;;;;21.84;40.04;93859.69;4986358;28;20389;-78
2021/09/17 02:36:45;;;;;;;16.55;7.65;;;;;;;21.70;40.52;93850.75;4989689;28;20030;-78
2021/09/17 02:39:13;;;;;;;11.38;8.48;;;;;;;21.71;40.49;93855.75;4988373;28;20026;-77
2021/09/17 02:41:39;;;;;;;10.60;7.00;;;;;;;21.73;40.54;93863.50;4988549;28;20046;-78
2021/09/17 02:44:04;;;;;;;9.55;6.82;;;;;;;21.82;41.13;93869.31;4990237;28;20508;-78
2021/09/17 02:46:30;;;;;;;15.68;7.50;;;;;;;21.79;40.80;93870.09;4985439;28;20048;-77
2021/09/17 02:48:55;;;;;;;16.92;7.57;;;;;;;21.72;40.37;93845.72;4989502;28;20120;-80
2021/09/17 02:51:21;;;;;;;9.55;6.55;;;;;;;21.86;40.95;93860.06;4987995;28;20941;-77
2021/09/17 02:53:46;;;;;;;14.93;7.78;;;;;;;21.86;41.31;93860.06;4989184;28;20091;-78
2021/09/17 02:56:12;;;;;;;11.07;7.05;;;;;;;21.81;40.61;93854.22;4983963;28;21177;-77
2021/09/17 02:58:37;;;;;;;9.02;7.35;;;;;;;21.76;40.54;93841.84;4988837;28;20046;-77
2021/09/17 03:01:04;;;;;;;11.70;7.78;;;;;;;21.60;40.29;93810.88;4988478;28;20022;-78
2021/09/17 03:03:30;;;;;;;11.93;8.05;;;;;;;21.91;39.76;93856.19;4986516;28;20136;-77
2021/09/17 03:05:55;;;;;;;12.00;7.70;;;;;;;21.92;40.00;93854.25;4996573;28;20350;-77
2021/09/17 03:08:21;;;;;;;20.27;7.80;;;;;;;21.91;41.05;93860.84;4987157;28;20373;-78
2021/09/17 03:10:46;;;;;;;14.15;8.23;;;;;;;21.81;40.63;93841.47;4985614;28;20085;-78
2021/09/17 03:13:12;;;;;;;15.20;7.47;;;;;;;21.93;40.32;93856.59;4989313;28;20046;-78
2021/09/17 03:15:37;;;;;;;11.35;7.38;;;;;;;21.92;41.20;93852.34;4986930;28;20030;-77
2021/09/17 03:18:02;;;;;;;14.73;8.20;;;;;;;22.03;40.02;93855.06;4985145;28;20116;-77
2021/09/17 03:20:28;;;;;;;12.93;8.00;;;;;;;21.98;40.39;93856.22;4992972;28;20042;-77
2021/09/17 03:22:53;;;;;;;9.77;7.13;;;;;;;21.92;41.32;93838.78;4986734;28;20086;-77
2021/09/17 03:25:19;;;;;;;9.75;7.57;;;;;;;21.85;40.45;93838.81;4985102;28;20044;-77
2021/09/17 03:27:44;;;;;;;11.55;7.85;;;;;;;21.97;40.83;93845.75;4987893;28;20037;-78
2021/09/17 03:30:10;;;;;;;11.05;7.15;;;;;;;21.85;41.63;93858.50;4994460;28;20034;-77
2021/09/17 03:32:36;;;;;;;12.63;8.10;;;;;;;21.88;41.37;93865.09;4987886;28;20129;-78
2021/09/17 03:35:03;;;;;;;10.38;8.07;;;;;;;21.73;42.68;93863.50;4984802;28;20034;-78
2021/09/17 03:37:29;;;;;;;18.67;8.68;;;;;;;21.75;41.51;93861.19;4988731;28;20034;-77
2021/09/17 03:39:54;;;;;;;11.52;8.20;;;;;;;21.53;40.57;93822.44;4983831;28;20026;-78
2021/09/17 03:42:19;;;;;;;13.82;7.72;;;;;;;21.73;40.46;93858.09;4984604;28;20457;-78
2021/09/17 03:44:45;;;;;;;12.32;8.95;;;;;;;21.77;40.35;93856.16;4986271;28;20050;-77
2021/09/17 03:47:10;;;;;;;16.20;10.13;;;;;;;21.66;42.27;93828.28;4988054;28;20543;-77
2021/09/17 03:49:36;;;;;;;12.93;8.60;;;;;;;21.74;42.11;93860.41;4989893;28;20038;-78
2021/09/17 03:52:01;;;;;;;14.38;8.88;;;;;;;21.58;41.68;93841.03;4985407;28;20030;-78
2021/09/17 03:54:27;;;;;;;17.23;9.52;;;;;;;21.61;44.75;93859.19;4987565;28;20034;-77
2021/09/17 03:56:57;;;;;;;16.27;9.65;;;;;;;21.52;44.90;93855.28;4982814;28;20409;-77
2021/09/17 03:59:23;;;;;;;16.27;10.10;;;;;;;21.34;46.12;93842.47;4986934;28;20034;-78
2021/09/17 04:01:49;;;;;;;17.38;9.25;;;;;;;21.26;45.21;93830.06;4984871;28;20388;-78
2021/09/17 04:04:14;;;;;;;13.82;9.10;;;;;;;21.28;45.39;93835.09;4985662;28;20497;-78
2021/09/17 04:06:42;;;;;;;11.60;8.95;;;;;;;21.25;45.57;93828.50;4987856;28;20598;-78
2021/09/17 04:09:11;;;;;;;19.25;10.27;;;;;;;21.33;46.53;93827.38;4990472;28;20081;-78
2021/09/17 04:11:37;;;;;;;13.55;9.25;;;;;;;21.22;46.25;93837.38;4987614;28;20851;-78
2021/09/17 04:14:03;;;;;;;15.40;9.65;;;;;;;21.29;46.93;93845.53;4986997;28;20393;-78
2021/09/17 04:16:28;;;;;;;14.52;9.13;;;;;;;21.18;46.55;93823.06;4984152;28;20125;-79
2021/09/17 04:18:54;;;;;;;13.15;9.40;;;;;;;21.29;46.15;93848.22;4985053;28;20555;-78
2021/09/17 04:21:19;;;;;;;12.65;9.48;;;;;;;21.16;46.41;93847.03;4987553;28;20613;-77
2021/09/17 04:23:44;;;;;;;14.88;9.40;;;;;;;21.13;46.60;93850.47;4984142;28;20042;-78
2021/09/17 04:26:10;;;;;;;17.17;9.38;;;;;;;21.19;45.76;93859.78;4986494;28;20035;-77
2021/09/17 04:28:35;;;;;;;10.25;9.10;;;;;;;21.41;46.59;93866.06;4984244;28;20093;-79
2021/09/17 04:31:01;;;;;;;15.95;9.32;;;;;;;21.12;46.77;93861.69;4986230;28;20494;-77
2021/09/17 04:33:27;;;;;;;24.98;9.80;;;;;;;21.39;46.60;93882.69;4983803;28;20034;-79
2021/09/17 04:35:52;;;;;;;14.20;8.63;;;;;;;21.28;47.29;93881.84;4988421;28;20042;-78
2021/09/17 04:38:17;;;;;;;17.30;10.10;;;;;;;21.23;47.06;93890.31;4984220;28;20457;-78
2021/09/17 04:40:43;;;;;;;14.00;9.75;;;;;;;21.05;46.64;93856.22;4984042;28;20756;-78
2021/09/17 04:43:08;;;;;;;15.77;10.27;;;;;;;21.04;44.83;93866.25;4985454;28;20536;-78
2021/09/17 04:45:34;;;;;;;11.25;9.82;;;;;;;21.07;45.40;93857.38;4990202;28;20058;-78
2021/09/17 04:48:13;;;;;;;14.02;9.10;;;;;;;21.08;45.20;93861.63;4987242;28;20051;-78
2021/09/17 04:50:39;;;;;;;15.07;9.63;;;;;;;21.26;45.77;93873.34;4988445;28;20441;-78
2021/09/17 04:53:05;;;;;;;12.77;8.80;;;;;;;21.27;45.08;93877.59;4991281;28;20043;-77
2021/09/17 04:55:36;;;;;;;16.58;9.05;;;;;;;21.29;45.35;93878.00;4988278;28;20042;-78
2021/09/17 04:58:07;;;;;;;11.50;9.20;;;;;;;21.31;44.89;93859.47;4989880;28;20026;-79
2021/09/17 05:00:34;;;;;;;19.50;9.73;;;;;;;21.24;44.93;93842.41;4982762;28;20045;-78
2021/09/17 05:02:59;;;;;;;12.77;8.88;;;;;;;21.25;44.74;93836.63;4989748;28;20034;-78
2021/09/17 05:05:25;;;;;;;13.07;9.23;;;;;;;21.45;44.70;93847.91;4988527;28;20088;-77
2021/09/17 05:07:50;;;;;;;13.13;9.10;;;;;;;21.46;45.43;93863.75;4985453;28;20038;-76
2021/09/17 05:10:16;;;;;;;11.90;8.07;;;;;;;21.52;46.32;93861.47;4985469;28;20038;-78
2021/09/17 05:12:41;;;;;;;15.13;9.50;;;;;;;21.40;45.08;93840.16;4984416;28;20397;-76
2021/09/17 05:15:08;;;;;;;16.33;8.38;;;;;;;21.56;45.29;93850.69;4987422;28;20074;-78
2021/09/17 05:17:33;;;;;;;16.35;8.68;;;;;;;21.56;45.43;93854.16;4984574;28;20053;-78
2021/09/17 05:19:59;;;;;;;14.82;8.80;;;;;;;21.53;46.02;93864.94;4984107;28;20038;-79
2021/09/17 05:22:25;;;;;;;19.85;9.00;;;;;;;21.42;45.90;93848.66;4986225;28;20037;-78
2021/09/17 05:24:51;;;;;;;20.35;9.60;;;;;;;21.55;46.49;93862.69;4981227;28;20026;-78
2021/09/17 05:27:17;;;;;;;17.00;8.85;;;;;;;21.31;45.69;93818.09;4987844;28;20029;-76
2021/09/17 05:29:42;;;;;;;14.15;9.05;;;;;;;21.53;45.63;93827.06;4986504;28;20038;-76
2021/09/17 05:32:08;;;;;;;19.63;9.73;;;;;;;21.57;45.31;93823.25;4981403;28;20137;-76
2021/09/17 05:34:34;;;;;;;17.75;8.18;;;;;;;21.72;44.53;93834.88;4986852;28;20046;-77
2021/09/17 05:36:59;;;;;;;17.88;9.38;;;;;;;21.87;44.45;93841.88;4987301;28;20571;-76
2021/09/17 05:39:25;;;;;;;15.18;9.02;;;;;;;21.77;44.29;93848.03;4989094;28;20021;-77
2021/09/17 05:41:51;;;;;;;14.63;9.43;;;;;;;21.64;43.45;93830.63;4989161;28;20568;-77
2021/09/17 05:44:16;;;;;;;14.40;9.98;;;;;;;21.74;45.21;93848.81;4981582;28;20049;-77
2021/09/17 05:46:41;;;;;;;20.00;9.50;;;;;;;21.93;44.56;93850.41;4991498;28;20046;-76
2021/09/17 05:49:07;;;;;;;18.27;9.98;;;;;;;21.98;45.13;93853.50;4985730;28;20478;-76
2021/09/17 05:51:33;;;;;;;16.52;9.45;;;;;;;21.90;44.79;93854.66;4988389;28;20130;-77
2021/09/17 05:53:58;;;;;;;22.90;9.07;;;;;;;21.81;43.80;93836.06;4988639;28;20128;-77
2021/09/17 05:56:25;;;;;;;17.33;9.32;;;;;;;21.98;45.48;93844.63;4986637;28;20054;-76
2021/09/17 05:58:51;;;;;;;14.07;9.55;;;;;;;21.81;46.07;93827.16;4988866;28;20038;-77
2021/09/17 06:01:16;;;;;;;15.65;9.18;;;;;;;21.85;44.72;93844.97;4986940;28;20046;-78
2021/09/17 06:03:42;;;;;;;20.08;9.63;;;;;;;21.97;42.36;93846.53;4990866;28;20193;-78
2021/09/17 06:06:08;;;;;;;13.10;9.45;;;;;;;22.02;44.48;93854.28;4998642;28;20378;-76
2021/09/17 06:08:34;;;;;;;9.98;8.10;;;;;;;22.10;42.29;93845.00;4982470;28;20435;-77
2021/09/17 06:10:59;;;;;;;20.52;8.50;;;;;;;22.00;43.16;93812.53;4988711;28;20176;-78
2021/09/17 06:13:25;;;;;;;13.32;9.30;;;;;;;22.28;42.45;93845.84;4988041;28;20038;-77
2021/09/17 06:15:50;;;;;;;12.80;8.30;;;;;;;22.32;42.61;93847.78;4989182;28;20064;-77
2021/09/17 06:18:15;;;;;;;12.00;8.23;;;;;;;22.37;41.48;93831.91;4989072;28;20053;-78
2021/09/17 06:20:41;;;;;;;16.98;10.20;;;;;;;22.44;39.70;93836.56;4989630;28;20045;-77
2021/09/17 06:23:06;;;;;;;18.58;10.10;;;;;;;22.47;40.93;93824.94;4990988;28;20034;-76
2021/09/17 06:25:31;;;;;;;19.98;9.25;;;;;;;22.44;41.65;93814.88;4985552;28;20469;-79
2021/09/17 06:27:57;;;;;;;18.52;9.98;;;;;;;22.54;40.46;93827.63;4989719;28;20038;-76
2021/09/17 06:30:23;;;;;;;23.45;11.48;;;;;;;22.52;41.10;93833.47;4988596;28;20053;-77
2021/09/17 06:32:48;;;;;;;18.92;11.60;;;;;;;22.75;42.29;93824.91;4986297;28;20049;-76
2021/09/17 06:35:14;;;;;;;25.85;11.02;;;;;;;22.68;41.47;93830.38;4987851;28;20045;-77
2021/09/17 06:37:53;;;;;;;35.03;13.05;;;;;;;22.76;41.58;93834.59;4988031;28;20653;-77
2021/09/17 06:40:21;;;;;;;21.08;11.57;;;;;;;22.80;40.28;93848.91;4986864;28;20045;-78
2021/09/17 06:42:47;;;;;;;28.15;11.60;;;;;;;22.71;41.10;93845.84;4987990;28;20022;-77
2021/09/17 06:45:13;;;;;;;20.10;11.13;;;;;;;22.84;41.31;93822.56;4985727;28;20072;-77
2021/09/17 06:47:46;;;;;;;29.10;10.82;;;;;;;23.05;39.94;93844.25;4988235;28;20555;-78
2021/09/17 06:50:12;;;;;;;23.45;9.82;;;;;;;23.09;39.41;93830.69;4986916;28;20120;-77
2021/09/17 06:52:39;;;;;;;23.70;10.45;;;;;;;22.93;39.12;93839.22;4987498;28;20053;-78
2021/09/17 06:55:05;;;;;;;21.58;10.85;;;;;;;22.95;39.21;93828.00;5002116;28;20044;-77
2021/09/17 06:57:41;;;;;;;25.20;10.68;;;;;;;22.92;40.33;93824.16;4988410;28;20597;-77
2021/09/17 07:00:07;;;;;;;27.38;10.05;;;;;;;23.19;40.60;93820.97;4984543;28;20038;-78
2021/09/17 07:02:32;;;;;;;15.07;8.50;;;;;;;23.26;38.52;93842.66;4985808;28;20038;-77
2021/09/17 07:04:57;;;;;;;22.38;10.07;;;;;;;23.14;37.85;93827.56;4986410;28;20036;-79
2021/09/17 07:07:23;;;;;;;20.13;8.48;;;;;;;23.15;38.78;93826.41;4986809;28;20060;-76
2021/09/17 07:09:48;;;;;;;18.08;8.43;;;;;;;23.29;39.03;93818.22;4988999;28;20480;-76
2021/09/17 07:12:13;;;;;;;23.50;8.68;;;;;;;23.53;39.67;93830.94;4985471;28;20049;-77
2021/09/17 07:14:39;;;;;;;18.70;8.68;;;;;;;23.44;36.86;93822.44;4987493;28;20704;-76
2021/09/17 07:17:04;;;;;;;13.18;8.13;;;;;;;23.37;37.43;93805.38;4986060;28;20050;-76
2021/09/17 07:19:30;;;;;;;20.92;9.13;;;;;;;23.34;37.63;93809.66;4988548;28;20436;-76
2021/09/17 07:21:55;;;;;;;20.02;8.63;;;;;;;23.42;37.48;93804.97;4987500;28;20026;-77
2021/09/17 07:24:21;;;;;;;18.58;8.43;;;;;;;23.22;37.59;93776.78;4982441;28;20757;-77
2021/09/17 07:26:46;;;;;;;18.10;8.20;;;;;;;23.37;37.58;93797.25;4986798;28;20430;-77
2021/09/17 07:29:11;;;;;;;19.55;8.13;;;;;;;23.36;37.00;93795.72;4987445;28;20034;-77
2021/09/17 07:31:37;;;;;;;17.38;9.07;;;;;;;23.42;37.24;93785.97;4986780;28;20063;-77
2021/09/17 07:34:02;;;;;;;12.98;8.00;;;;;;;23.43;36.57;93798.38;4988417;28;20029;-78
2021/09/17 07:36:28;;;;;;;15.60;8.00;;;;;;;23.47;36.97;93782.84;4987069;28;20774;-76
2021/09/17 07:38:53;;;;;;;29.38;9.13;;;;;;;23.13;36.37;93756.25;4986324;28;20401;-78
2021/09/17 07:41:18;;;;;;;20.98;8.88;;;;;;;23.51;36.85;93791.81;4987156;28;20035;-77
2021/09/17 07:43:44;;;;;;;18.17;8.60;;;;;;;23.62;36.16;93784.34;4987180;28;20046;-76
2021/09/17 07:46:09;;;;;;;15.35;8.27;;;;;;;23.85;36.58;93792.78;4986577;28;20336;-77
2021/09/17 07:48:34;;;;;;;13.73;8.30;;;;;;;24.00;35.65;93788.03;4994036;28;20026;-78
2021/09/17 07:51:00;;;;;;;12.57;8.40;;;;;;;24.01;35.52;93774.03;4983849;28;20042;-76
2021/09/17 07:53:25;;;;;;;23.77;8.35;;;;;;;23.88;35.16;93780.34;4986047;28;20084;-77
2021/09/17 07:55:53;;;;;;;14.30;7.63;;;;;;;23.92;34.85;93792.72;4986007;28;20797;-78
2021/09/17 07:58:19;;;;;;;16.52;7.18;;;;;;;23.83;34.35;93773.38;4989163;28;20461;-77
2021/09/17 08:00:44;;;;;;;16.05;8.27;;;;;;;23.90;34.24;93781.50;4989135;28;20109;-77
2021/09/17 08:03:09;;;;;;;28.02;9.10;;;;;;;23.66;34.19;93771.53;4984860;28;20092;-77
2021/09/17 08:05:35;;;;;;;11.50;7.47;;;;;;;23.58;34.81;93732.03;4987719;28;20516;-77
2021/09/17 08:08:01;;;;;;;11.88;7.32;;;;;;;24.00;34.65;93750.75;4990218;28;20121;-78
2021/09/17 08:10:26;;;;;;;12.13;7.38;;;;;;;24.18;34.74;93749.88;4984024;28;20038;-77
2021/09/17 08:12:52;;;;;;;17.88;7.20;;;;;;;24.23;34.52;93741.28;4988530;28;20084;-77
2021/09/17 08:15:17;;;;;;;11.23;7.47;;;;;;;24.30;34.12;93752.09;4983930;28;20083;-76
2021/09/17 08:17:43;;;;;;;16.17;7.63;;;;;;;23.99;34.75;93710.41;4987728;28;20081;-77
2021/09/17 08:20:09;;;;;;;11.75;8.02;;;;;;;24.18;34.45;93739.00;4988127;28;20093;-77
2021/09/17 08:22:35;;;;;;;21.20;8.07;;;;;;;24.22;34.88;93731.59;4989423;28;20421;-77
2021/09/17 08:25:00;;;;;;;12.75;7.82;;;;;;;24.30;36.12;93735.78;4988609;28;20034;-76
2021/09/17 08:27:26;;;;;;;16.10;7.97;;;;;;;24.48;36.14;93730.19;4988011;28;20116;-76
2021/09/17 08:29:51;;;;;;;24.35;9.32;;;;;;;24.78;35.26;93739.22;4987929;28;20520;-77
2021/09/17 08:32:17;;;;;;;16.23;8.35;;;;;;;24.62;34.30;93739.00;4984775;28;20034;-77
2021/09/17 08:34:42;;;;;;;17.17;9.18;;;;;;;24.59;33.96;93741.75;4984188;28;20873;-77
2021/09/17 08:37:09;;;;;;;19.13;9.23;;;;;;;24.65;36.68;93735.44;4985171;28;20038;-76
2021/09/17 08:39:38;;;;;;;18.17;7.15;;;;;;;24.59;33.74;93728.16;4985290;28;20017;-77
2021/09/17 08:42:06;;;;;;;16.35;8.23;;;;;;;24.53;33.64;93727.03;4990246;28;20034;-76
2021/09/17 08:44:32;;;;;;;14.95;7.72;;;;;;;24.44;34.48;93730.97;4988163;28;20068;-78
2021/09/17 08:46:58;;;;;;;13.95;7.53;;;;;;;24.43;34.49;93718.59;4986830;28;20042;-76
2021/09/17 08:49:24;;;;;;;17.13;7.57;;;;;;;24.52;33.54;93731.72;4988027;28;20539;-77
2021/09/17 08:51:51;;;;;;;15.90;8.95;;;;;;;24.31;34.93;93721.81;4986517;28;20548;-77
2021/09/17 08:54:16;;;;;;;16.40;8.10;;;;;;;24.52;34.39;93753.44;4986608;28;20084;-77
2021/09/17 08:56:42;;;;;;;15.80;7.25;;;;;;;24.70;34.45;93740.44;4990064;28;20508;-78
2021/09/17 08:59:07;;;;;;;16.40;8.80;;;;;;;24.86;34.36;93737.22;4987309;28;20034;-77
2021/09/17 09:01:36;;;;;;;12.40;7.43;;;;;;;24.82;33.71;93739.97;4987663;28;20101;-77
2021/09/17 09:04:04;;;;;;;20.90;7.90;;;;;;;24.93;34.24;93733.66;4984797;28;20681;-77
2021/09/17 09:06:38;;;;;;;11.35;7.55;;;;;;;24.99;34.15;93721.13;4986959;28;20019;-78
2021/09/17 09:09:13;;;;;;;13.18;7.95;;;;;;;25.22;34.58;93721.97;4987584;28;20413;-77
2021/09/17 09:11:38;;;;;;;13.52;7.55;;;;;;;25.19;33.36;93714.66;4991333;28;20509;-77
2021/09/17 09:14:09;;;;;;;16.88;7.43;;;;;;;25.33;33.65;93711.00;4986012;28;20623;-77
2021/09/17 09:16:41;;;;;;;21.90;8.95;;;;;;;25.20;33.48;93689.00;4983575;28;20121;-78
2021/09/17 09:19:29;;;;;;;14.63;7.18;;;;;;;25.51;33.50;93722.44;4988801;28;20049;-76
2021/09/17 09:22:00;;;;;;;18.95;8.13;;;;;;;25.39;34.07;93701.19;4993241;28;20034;-77
2021/09/17 09:24:26;;;;;;;19.20;7.75;;;;;;;24.96;33.47;93673.75;4986331;28;20569;-78
2021/09/17 09:27:13;;;;;;;14.23;7.70;;;;;;;25.24;33.63;93713.41;4992485;28;20038;-76
2021/09/17 09:29:41;;;;;;;17.30;7.95;;;;;;;25.15;33.88;93713.16;4995814;28;20157;-77
2021/09/17 09:32:07;;;;;;;20.88;7.90;;;;;;;25.23;33.77;93720.03;4991069;28;20097;-77
2021/09/17 09:34:48;;;;;;;20.90;7.05;;;;;;;25.33;33.75;93716.44;4985043;28;20890;-76
2021/09/17 09:37:13;;;;;;;17.75;7.70;;;;;;;25.16;33.61;93677.38;4993294;28;20504;-76
2021/09/17 09:39:59;;;;;;;17.98;7.72;;;;;;;25.37;33.85;93700.81;4987966;28;20037;-77
2021/09/17 09:42:47;;;;;;;21.13;7.40;;;;;;;25.39;33.85;93690.31;4989548;28;20053;-77
2021/09/17 09:45:18;;;;;;;29.15;7.90;;;;;;;25.73;34.54;93689.44;4986346;28;20064;-77
2021/09/17 09:47:49;;;;;;;16.23;7.68;;;;;;;25.89;34.52;93689.63;4991508;28;20656;-77
2021/09/17 09:50:22;;;;;;;15.10;7.00;;;;;;;25.88;33.36;93675.19;4987858;28;20045;-76
2021/09/17 09:52:49;;;;;;;24.67;7.63;;;;;;;25.76;33.42;93675.00;4991251;28;20045;-76
2021/09/17 09:55:15;;;;;;;22.50;8.75;;;;;;;25.90;34.58;93663.91;4986322;28;20611;-76
2021/09/17 09:57:42;;;;;;;20.70;7.70;;;;;;;26.13;35.09;93678.31;4989946;28;20088;-77
2021/09/17 10:00:10;;;;;;;22.00;7.47;;;;;;;26.21;33.44;93668.03;4990874;28;20034;-77
2021/09/17 10:02:37;;;;;;;15.23;7.53;;;;;;;26.31;34.44;93669.03;4987639;28;20065;-77
2021/09/17 10:05:05;;;;;;;18.08;7.70;;;;;;;26.30;35.01;93635.56;4994029;28;20040;-78
2021/09/17 10:07:30;;;;;;;19.98;7.28;;;;;;;26.43;33.12;93663.75;4992067;28;20038;-77
2021/09/17 10:09:57;;;;;;;19.63;8.10;;;;;;;26.28;33.13;93643.41;4987876;28;20026;-76
2021/09/17 10:12:24;;;;;;;22.10;8.00;;;;;;;26.52;34.32;93661.28;4990098;28;20029;-77
2021/09/17 10:14:51;;;;;;;25.48;7.95;;;;;;;26.39;32.36;93656.84;4989299;28;20572;-76
2021/09/17 10:17:26;;;;;;;22.35;7.63;;;;;;;26.20;33.25;93658.34;4988663;28;20050;-76
2021/09/17 10:19:53;;;;;;;25.02;7.07;;;;;;;26.43;37.17;93660.25;4990152;28;20034;-77
2021/09/17 10:22:35;;;;;;;25.67;8.25;;;;;;;26.32;33.35;93635.91;4988719;28;20042;-77
2021/09/17 10:25:20;;;;;;;32.58;9.73;;;;;;;26.46;34.78;93668.41;4987526;28;20089;-77
2021/09/17 10:28:07;;;;;;;23.55;6.90;;;;;;;26.60;32.62;93658.41;4984385;28;20053;-77
2021/09/17 10:30:35;;;;;;;19.15;7.68;;;;;;;26.65;33.09;93652.47;4989656;28;20442;-77
2021/09/17 10:33:01;;;;;;;19.52;6.93;;;;;;;26.67;32.02;93650.09;4985424;28;20052;-79
2021/09/17 10:35:31;;;;;;;21.98;8.70;;;;;;;26.73;34.11;93638.28;4986252;28;20034;-77
2021/09/17 10:38:01;;;;;;;24.55;8.13;;;;;;;26.91;34.82;93638.69;4985145;28;20066;-78
2021/09/17 10:40:40;;;;;;;21.88;7.15;;;;;;;26.92;32.91;93640.25;4986287;28;20049;-77
2021/09/17 10:43:08;;;;;;;23.50;8.10;;;;;;;26.74;32.55;93622.69;4993678;28;20634;-79
2021/09/17 10:45:58;;;;;;;21.92;7.45;;;;;;;26.69;35.07;93609.53;4986287;28;20865;-77
2021/09/17 10:48:42;;;;;;;19.98;7.13;;;;;;;26.87;33.86;93618.13;4963792;28;20077;-77
2021/09/17 10:51:09;;;;;;;23.98;7.25;;;;;;;26.88;32.46;93608.75;4985386;28;20045;-77
2021/09/17 10:53:40;;;;;;;18.92;7.10;;;;;;;26.80;32.28;93604.63;4988380;28;20149;-78
2021/09/17 10:56:16;;;;;;;23.05;8.02;;;;;;;26.94;33.06;93601.59;4983468;28;20053;-80
2021/09/17 10:58:43;;;;;;;23.92;7.43;;;;;;;26.77;34.04;93545.47;4986792;28;20552;-78
2021/09/17 11:01:11;;;;;;;25.63;6.95;;;;;;;27.07;33.79;93583.44;4983914;28;20143;-76
2021/09/17 11:03:39;;;;;;;23.95;6.88;;;;;;;26.83;31.68;93571.81;4986808;28;20030;-78
2021/09/17 11:06:26;;;;;;;21.30;6.63;;;;;;;26.81;31.47;93581.63;4987628;28;20058;-77
2021/09/17 11:08:56;;;;;;;31.23;7.15;;;;;;;26.80;32.11;93588.25;4984952;28;20069;-77
2021/09/17 11:11:42;;;;;;;31.02;7.28;;;;;;;26.54;32.59;93532.72;4983618;28;20060;-78
2021/09/17 11:14:14;;;;;;;21.00;6.30;;;;;;;27.04;32.42;93575.28;4984031;28;20042;-77
2021/09/17 11:16:40;;;;;;;26.33;7.45;;;;;;;26.99;32.43;93557.44;4981782;28;20037;-76
2021/09/17 11:19:09;;;;;;;24.13;6.97;;;;;;;27.24;33.22;93563.13;4981160;28;20396;-79
2021/09/17 11:21:38;;;;;;;23.33;7.07;;;;;;;27.02;31.58;93562.09;4989204;28;20030;-77
2021/09/17 11:24:05;;;;;;;33.75;7.68;;;;;;;26.73;32.29;93545.53;4984690;28;20092;-77